createdAt,value
2023-02-22T00:01:50.884Z,24.20
2023-02-22T00:05:58.209Z,25.67
2023-02-22T00:10:01.581Z,26.70
2023-02-22T00:14:08.053Z,25.40
2023-02-22T00:18:34.598Z,26.03
2023-02-22T00:22:37.787Z,25.53
2023-02-22T00:26:40.761Z,29.20
2023-02-22T00:30:45.953Z,27.23
2023-02-22T00:34:53.135Z,24.87
2023-02-22T00:38:56.307Z,26.87
2023-02-22T00:42:59.900Z,27.20
2023-02-22T00:47:04.773Z,26.00
2023-02-22T00:51:07.985Z,29.77
2023-02-22T00:55:17.641Z,29.63
2023-02-22T00:59:20.763Z,33.03
2023-02-22T01:03:26.028Z,33.43
2023-02-22T01:07:29.446Z,36.77
2023-02-22T01:11:34.197Z,36.77
2023-02-22T01:15:39.370Z,41.53
2023-02-22T01:19:44.463Z,44.20
2023-02-22T01:23:48.407Z,47.20
2023-02-22T01:27:52.465Z,42.67
2023-02-22T01:31:57.325Z,44.73
2023-02-22T01:36:02.031Z,43.27
2023-02-22T01:40:08.047Z,41.17
2023-02-22T01:44:23.483Z,39.67
2023-02-22T01:48:35.367Z,39.17
2023-02-22T01:52:39.978Z,39.73
2023-02-22T01:56:51.462Z,41.07
2023-02-22T02:00:57.548Z,39.53
2023-02-22T02:05:01.283Z,40.13
2023-02-22T02:09:11.149Z,40.47
2023-02-22T02:13:16.089Z,40.37
2023-02-22T02:17:23.373Z,39.67
2023-02-22T02:22:03.869Z,39.70
2023-02-22T02:26:34.173Z,40.90
2023-02-22T02:30:49.842Z,39.40
2023-02-22T02:35:02.803Z,38.53
2023-02-22T02:39:11.968Z,38.60
2023-02-22T02:43:19.454Z,38.33
2023-02-22T02:47:26.470Z,39.00
2023-02-22T02:51:38.174Z,38.90
2023-02-22T02:55:41.215Z,36.47
2023-02-22T02:59:44.267Z,39.60
2023-02-22T03:04:02.988Z,37.60
2023-02-22T03:08:13.862Z,39.43
2023-02-22T03:12:28.587Z,40.40
2023-02-22T03:16:41.003Z,38.33
2023-02-22T03:20:51.389Z,39.40
2023-02-22T03:25:07.021Z,38.60
2023-02-22T03:29:16.168Z,35.53
2023-02-22T03:33:28.745Z,35.40
2023-02-22T03:37:37.467Z,36.43
2023-02-22T03:41:48.520Z,35.97
2023-02-22T03:45:53.197Z,33.33
2023-02-22T03:50:01.966Z,33.83
2023-02-22T03:54:07.015Z,38.03
2023-02-22T03:58:16.660Z,35.57
2023-02-22T04:02:20.583Z,33.10
2023-02-22T04:06:23.779Z,35.97
2023-02-22T04:10:26.702Z,34.33
2023-02-22T04:14:31.527Z,35.93
2023-02-22T04:18:34.900Z,38.93
2023-02-22T04:22:38.725Z,34.97
2023-02-22T04:26:42.468Z,37.00
2023-02-22T04:30:47.069Z,36.33
2023-02-22T04:34:52.630Z,39.40
2023-02-22T04:38:55.938Z,36.93
2023-02-22T04:43:00.178Z,38.47
2023-02-22T04:47:06.109Z,39.90
2023-02-22T04:51:10.262Z,44.10
2023-02-22T04:55:17.189Z,39.80
2023-02-22T04:59:20.777Z,48.07
2023-02-22T05:03:31.759Z,42.00
2023-02-22T05:07:34.751Z,43.37
2023-02-22T05:11:37.765Z,47.73
2023-02-22T05:15:41.665Z,51.47
2023-02-22T05:19:47.632Z,50.20
2023-02-22T05:23:50.785Z,52.20
2023-02-22T05:27:55.452Z,47.80
2023-02-22T05:31:59.245Z,51.33
2023-02-22T05:36:03.693Z,51.43
2023-02-22T05:40:07.845Z,54.43
2023-02-22T05:44:15.267Z,56.40
2023-02-22T05:48:19.809Z,50.10
2023-02-22T05:52:30.451Z,53.57
2023-02-22T05:56:34.085Z,55.40
2023-02-22T06:00:37.999Z,54.33
2023-02-22T06:04:44.975Z,53.30
2023-02-22T06:08:49.644Z,49.00
2023-02-22T06:12:55.332Z,53.60
2023-02-22T06:16:59.207Z,50.57
2023-02-22T06:21:03.143Z,49.13
2023-02-22T06:25:09.140Z,51.20
2023-02-22T06:29:12.158Z,50.63
2023-02-22T06:33:16.045Z,51.43
2023-02-22T06:37:19.426Z,48.67
2023-02-22T06:41:24.489Z,47.67
2023-02-22T06:45:28.462Z,55.60
2023-02-22T06:49:31.398Z,51.93
2023-02-22T06:53:35.330Z,56.97
2023-02-22T06:57:40.260Z,54.10
2023-02-22T07:01:43.850Z,52.47
2023-02-22T07:05:46.825Z,52.13
2023-02-22T07:09:49.747Z,56.80
2023-02-22T07:13:55.473Z,48.03
2023-02-22T07:17:59.896Z,45.60
2023-02-22T07:22:02.781Z,50.93
2023-02-22T07:26:06.327Z,48.87
2023-02-22T07:30:17.608Z,48.43
2023-02-22T07:34:20.701Z,52.20
2023-02-22T07:38:23.680Z,50.23
2023-02-22T07:42:26.663Z,44.60
2023-02-22T07:46:31.012Z,42.93
2023-02-22T07:50:35.560Z,48.00
2023-02-22T07:54:39.414Z,43.97
2023-02-22T07:58:42.395Z,47.87
2023-02-22T08:02:48.830Z,41.73
2023-02-22T08:06:51.715Z,46.27
2023-02-22T08:10:54.719Z,40.53
2023-02-22T08:14:57.694Z,38.90
2023-02-22T08:19:02.110Z,41.53
2023-02-22T08:23:05.974Z,42.93
2023-02-22T08:27:09.308Z,39.77
2023-02-22T08:31:12.197Z,39.27
2023-02-22T08:35:18.159Z,40.07
2023-02-22T08:39:21.514Z,38.23
2023-02-22T08:43:25.513Z,37.27
2023-02-22T08:47:28.432Z,33.53
2023-02-22T08:51:35.823Z,30.40
2023-02-22T08:55:41.852Z,31.73
2023-02-22T08:59:44.753Z,32.03
2023-02-22T09:03:49.319Z,29.90
2023-02-22T09:07:53.722Z,35.47
2023-02-22T09:11:56.854Z,31.77
2023-02-22T09:15:59.831Z,34.20
2023-02-22T09:20:07.222Z,35.87
2023-02-22T09:24:12.059Z,38.53
2023-02-22T09:28:15.173Z,39.57
2023-02-22T09:32:19.103Z,39.77
2023-02-22T09:36:22.469Z,39.30
2023-02-22T09:40:30.641Z,42.13
2023-02-22T09:44:39.965Z,40.37
2023-02-22T09:48:57.911Z,38.87
2023-02-22T09:53:05.302Z,39.63
2023-02-22T09:57:16.490Z,38.20
2023-02-22T10:01:27.005Z,39.33
2023-02-22T10:05:37.468Z,38.97
2023-02-22T10:09:43.535Z,38.93
2023-02-22T10:14:01.610Z,39.33
2023-02-22T10:18:22.232Z,37.97
2023-02-22T10:22:40.870Z,37.03
2023-02-22T10:26:46.779Z,34.53
2023-02-22T10:30:56.689Z,36.47
2023-02-22T10:35:05.457Z,34.97
2023-02-22T10:39:20.958Z,34.00
2023-02-22T10:43:25.683Z,31.87
2023-02-22T10:47:30.839Z,32.90
2023-02-22T10:51:34.007Z,31.13
2023-02-22T10:55:37.725Z,31.73
2023-02-22T10:59:43.014Z,33.13
2023-02-22T11:03:58.352Z,31.33
2023-02-22T11:08:17.699Z,31.33
2023-02-22T11:12:28.615Z,30.37
2023-02-22T11:16:36.169Z,28.70
2023-02-22T11:20:40.894Z,29.90
2023-02-22T11:24:50.712Z,31.70
2023-02-22T11:28:56.278Z,31.57
2023-02-22T11:33:01.664Z,28.37
2023-02-22T11:37:30.597Z,30.97
2023-02-22T11:41:36.084Z,27.90
2023-02-22T11:45:49.897Z,30.37
2023-02-22T11:50:02.289Z,27.40
2023-02-22T11:54:31.546Z,30.50
2023-02-22T11:58:45.611Z,30.93
2023-02-22T12:03:19.513Z,30.73
2023-02-22T12:07:33.699Z,30.00
2023-02-22T12:11:51.341Z,30.73
2023-02-22T12:16:03.589Z,29.53
2023-02-22T12:20:16.361Z,31.17
2023-02-22T12:24:23.435Z,29.30
2023-02-22T12:28:37.735Z,30.43
2023-02-22T12:33:06.295Z,30.27
2023-02-22T12:37:25.543Z,28.97
2023-02-22T12:41:35.354Z,27.97
2023-02-22T12:45:46.352Z,27.47
2023-02-22T12:49:55.112Z,28.07
2023-02-22T12:54:06.438Z,25.70
2023-02-22T12:58:20.421Z,24.63
2023-02-22T13:02:29.749Z,22.77
2023-02-22T13:06:48.586Z,25.37
2023-02-22T13:11:04.409Z,21.70
2023-02-22T13:15:17.316Z,23.10
2023-02-22T13:19:34.811Z,22.93
2023-02-22T13:23:48.816Z,23.10
2023-02-22T13:27:56.267Z,23.10
2023-02-22T13:32:18.377Z,22.27
2023-02-22T13:36:38.448Z,21.27
2023-02-22T13:41:05.890Z,21.70
2023-02-22T13:45:44.963Z,22.07
2023-02-22T13:50:28.135Z,20.00
2023-02-22T13:54:42.337Z,20.47
2023-02-22T13:58:53.416Z,20.53
2023-02-22T14:03:03.434Z,20.80
2023-02-22T14:07:56.989Z,20.43
2023-02-22T14:12:01.540Z,19.70
2023-02-22T14:16:26.543Z,19.33
2023-02-22T14:20:35.125Z,19.53
2023-02-22T14:24:45.641Z,18.53
2023-02-22T14:28:56.237Z,18.57
2023-02-22T14:33:00.579Z,19.10
2023-02-22T14:37:07.874Z,18.87
2023-02-22T14:41:11.078Z,19.37
2023-02-22T14:45:24.804Z,19.53
2023-02-22T14:49:31.513Z,19.80
2023-02-22T14:53:39.299Z,20.40
2023-02-22T14:57:54.720Z,20.03
2023-02-22T15:06:35.319Z,18.80
2023-02-22T15:10:43.857Z,19.93
2023-02-22T15:14:49.684Z,18.47
2023-02-22T15:18:55.944Z,20.53
2023-02-22T15:23:01.383Z,19.53
2023-02-22T15:27:06.165Z,18.47
2023-02-22T15:31:24.955Z,20.93
2023-02-22T15:35:30.780Z,20.00
2023-02-22T15:39:43.678Z,19.00
2023-02-22T15:43:46.705Z,19.93
2023-02-22T15:47:50.936Z,19.67
2023-02-22T15:52:06.657Z,20.57
2023-02-22T15:56:15.256Z,20.53
2023-02-22T16:00:24.294Z,19.90
2023-02-22T16:04:29.792Z,19.13
2023-02-22T16:08:54.441Z,19.93
2023-02-22T16:13:11.143Z,26.03
2023-02-22T16:17:30.808Z,26.43
2023-02-22T16:21:53.451Z,24.33
2023-02-22T16:26:05.318Z,20.77
2023-02-22T16:30:25.641Z,20.97
2023-02-22T16:34:29.019Z,19.47
2023-02-22T16:38:38.349Z,21.23
2023-02-22T16:42:41.323Z,20.90
2023-02-22T16:46:45.767Z,20.77
2023-02-22T16:50:51.295Z,19.90
2023-02-22T16:54:55.553Z,20.37
2023-02-22T16:58:59.421Z,20.87
2023-02-22T17:03:05.518Z,22.43
2023-02-22T17:07:10.172Z,23.17
2023-02-22T17:11:15.816Z,22.40
2023-02-22T17:15:37.238Z,21.03
2023-02-22T17:19:42.814Z,22.23
2023-02-22T17:23:46.939Z,20.80
2023-02-22T17:27:50.184Z,21.70
2023-02-22T17:31:55.007Z,20.37
2023-02-22T17:36:02.139Z,19.40
2023-02-22T17:40:06.754Z,19.90
2023-02-22T17:44:11.784Z,20.17
2023-02-22T17:48:16.102Z,20.77
2023-02-22T17:52:20.755Z,20.70
2023-02-22T17:56:23.794Z,18.87
2023-02-22T18:00:34.287Z,19.63
2023-02-22T18:04:39.516Z,21.53
2023-02-22T18:08:43.984Z,23.20
2023-02-22T18:12:48.935Z,23.97
2023-02-22T18:16:52.307Z,27.27
2023-02-22T18:20:59.495Z,28.20
2023-02-22T18:25:04.345Z,30.30
2023-02-22T18:29:07.591Z,25.80
2023-02-22T18:33:11.992Z,25.63
2023-02-22T18:37:20.325Z,23.50
2023-02-22T18:41:26.349Z,22.80
2023-02-22T18:45:29.291Z,23.00
2023-02-22T18:49:41.993Z,23.97
2023-02-22T18:54:00.056Z,24.63
2023-02-22T18:58:05.941Z,24.80
2023-02-22T19:02:13.870Z,24.47
2023-02-22T19:06:19.165Z,28.00
2023-02-22T19:10:23.147Z,26.33
2023-02-22T19:14:27.791Z,28.37
2023-02-22T19:18:31.639Z,29.53
2023-02-22T19:22:34.768Z,30.20
2023-02-22T19:26:38.357Z,33.23
2023-02-22T19:30:42.960Z,30.37
2023-02-22T19:34:46.192Z,35.87
2023-02-22T19:38:50.274Z,30.37
2023-02-22T19:42:56.008Z,32.70
2023-02-22T19:47:01.086Z,34.83
2023-02-22T19:51:07.369Z,33.97
2023-02-22T19:55:13.466Z,35.50
2023-02-22T19:59:26.099Z,38.90
2023-02-22T20:03:34.973Z,38.00
2023-02-22T20:07:38.393Z,37.20
2023-02-22T20:11:41.287Z,32.43
2023-02-22T20:15:45.108Z,35.20
2023-02-22T20:19:50.402Z,35.23
2023-02-22T20:23:57.131Z,34.10
2023-02-22T20:28:00.699Z,34.20
2023-02-22T20:32:05.581Z,34.43
2023-02-22T20:36:11.201Z,35.20
2023-02-22T20:40:14.507Z,35.70
2023-02-22T20:44:19.524Z,38.67
2023-02-22T20:48:22.380Z,35.33
2023-02-22T20:52:27.333Z,34.70
2023-02-22T20:56:32.066Z,37.40
2023-02-22T21:00:35.374Z,38.63
2023-02-22T21:04:38.432Z,42.57
2023-02-22T21:08:44.459Z,44.80
2023-02-22T21:12:47.819Z,42.90
2023-02-22T21:16:52.629Z,46.80
2023-02-22T21:20:55.689Z,47.53
2023-02-22T21:24:59.990Z,46.13
2023-02-22T21:29:05.779Z,45.93
2023-02-22T21:33:09.028Z,46.90
2023-02-22T21:37:18.016Z,46.43
2023-02-22T21:41:27.380Z,44.97
2023-02-22T21:45:31.794Z,46.17
2023-02-22T21:49:46.022Z,46.03
2023-02-22T21:53:53.031Z,48.43
2023-02-22T21:57:57.706Z,50.63
2023-02-22T22:02:00.888Z,50.47
2023-02-22T22:06:10.887Z,49.73
2023-02-22T22:10:17.940Z,50.80
2023-02-22T22:14:24.205Z,47.50
2023-02-22T22:18:27.624Z,49.17
2023-02-22T22:22:30.577Z,47.33
2023-02-22T22:26:33.819Z,48.47
2023-02-22T22:30:39.220Z,48.97
2023-02-22T22:34:43.508Z,49.53
2023-02-22T22:38:49.129Z,54.07
2023-02-22T22:42:54.787Z,51.03
2023-02-22T22:46:59.162Z,54.27
2023-02-22T22:51:06.447Z,50.97
2023-02-22T22:55:11.999Z,51.07
2023-02-22T22:59:15.257Z,51.50
2023-02-22T23:03:19.594Z,55.20
2023-02-22T23:07:22.588Z,56.03
2023-02-22T23:11:25.609Z,54.43
2023-02-22T23:15:29.460Z,54.20
2023-02-22T23:19:35.919Z,56.73
2023-02-22T23:23:38.995Z,57.27
2023-02-22T23:27:42.031Z,52.10
2023-02-22T23:31:47.980Z,53.27
2023-02-22T23:35:53.468Z,56.27
2023-02-22T23:39:56.677Z,58.63
2023-02-22T23:44:00.351Z,59.50
2023-02-22T23:48:04.541Z,52.07
2023-02-22T23:52:13.294Z,53.00
2023-02-22T23:56:18.762Z,55.10
